Terminal Aerodrome Forecast
Issued by NWS Louisville, KY

Home | Current Version | Previous Version | Text Only | Print | Product List | Glossary On
Versions: 1 2 3 4 5 6 7 8 9 10 11 12 13 14 15 16
275
FTUS43 KLMK 272320
TAFBWG
TAF
KBWG 272320Z 2800/2824 VRB06KT P6SM VCTS SCT050CB BKN080
     FM280200 21007KT P6SM VCSH SCT040 BKN090
     FM280600 20005KT 6SM BR BKN025
     FM281000 27006KT 4SM BR BKN011
     FM281800 33005KT P6SM BKN025=

USA.gov is the U.S. government's official web portal to all federal, state and local government web resources and services.